Time;durP1;ratioP1;P1;durP2;ratioP2;P2;SDS_P1;SDS_P2;PMS_P1;PMS_P2;Temp;Humidity;BMP_temperature;BMP_pressure;BME280_temperature;BME280_humidity;BME280_pressure;Samples;Min_cycle;Max_cycle;Signal;HPM_P1;HPM_P2
2021/07/28 00:02:12;;;;;;;7.90;6.10;;;24.60;41.20;;;;;;5052956;28;20581;-65
2021/07/28 00:04:38;;;;;;;7.57;6.97;;;24.60;41.20;;;;;;5052909;28;20188;-65
2021/07/28 00:07:10;;;;;;;7.17;6.67;;;24.60;41.20;;;;;;5053243;28;20231;-65
2021/07/28 00:09:36;;;;;;;7.50;7.00;;;24.60;41.30;;;;;;5052881;28;20959;-65
2021/07/28 00:12:02;;;;;;;6.60;6.17;;;24.60;41.20;;;;;;5053086;28;20442;-65
2021/07/28 00:14:28;;;;;;;7.10;6.60;;;24.60;41.20;;;;;;5053070;28;20172;-64
2021/07/28 00:16:54;;;;;;;7.60;6.90;;;24.60;41.30;;;;;;5052755;28;20190;-65
2021/07/28 00:19:26;;;;;;;6.97;6.47;;;24.60;41.20;;;;;;5052888;28;20249;-65
2021/07/28 00:24:36;;;;;;;8.20;7.50;;;24.60;41.30;;;;;;5052441;28;20460;-66
2021/07/28 00:27:02;;;;;;;6.70;6.20;;;24.60;41.30;;;;;;5052898;28;20972;-65
2021/07/28 00:29:29;;;;;;;7.47;6.87;;;24.60;41.40;;;;;;5052738;28;20496;-65
2021/07/28 00:31:55;;;;;;;6.57;6.07;;;24.60;41.30;;;;;;5052272;28;20409;-64
2021/07/28 00:34:21;;;;;;;7.60;7.00;;;24.60;41.40;;;;;;5052667;28;20908;-65
2021/07/28 00:36:47;;;;;;;7.03;6.53;;;24.60;41.40;;;;;;5052747;28;20461;-65
2021/07/28 00:39:12;;;;;;;7.30;6.60;;;24.60;41.40;;;;;;5052301;28;20948;-65
2021/07/28 00:41:42;;;;;;;7.30;6.70;;;24.60;41.50;;;;;;5052522;28;20222;-65
2021/07/28 00:44:08;;;;;;;6.60;6.20;;;24.60;41.50;;;;;;5052431;28;20176;-65
2021/07/28 00:46:33;;;;;;;6.37;5.97;;;24.60;41.50;;;;;;5051845;28;20418;-66
2021/07/28 00:48:59;;;;;;;7.20;6.47;;;24.60;41.60;;;;;;5052258;28;20611;-64
2021/07/28 00:51:24;;;;;;;7.20;6.60;;;24.50;41.60;;;;;;5052484;28;20665;-66
2021/07/28 00:53:51;;;;;;;7.20;6.70;;;24.60;41.60;;;;;;5052261;28;20540;-65
2021/07/28 00:56:19;;;;;;;6.70;6.20;;;24.60;41.60;;;;;;5052026;28;20183;-65
2021/07/28 00:58:45;;;;;;;6.90;6.30;;;24.50;41.50;;;;;;5052260;28;20430;-65
2021/07/28 01:01:11;;;;;;;5.83;5.40;;;24.60;41.60;;;;;;5051291;28;20418;-65
2021/07/28 01:03:39;;;;;;;6.40;5.80;;;24.60;41.70;;;;;;5051943;28;20498;-65
2021/07/28 01:06:05;;;;;;;6.33;5.93;;;24.50;41.70;;;;;;5052110;28;20204;-65
2021/07/28 01:08:31;;;;;;;6.47;6.07;;;24.50;41.70;;;;;;5051972;28;20500;-65
2021/07/28 01:10:59;;;;;;;6.67;6.27;;;24.50;41.70;;;;;;5051919;28;20271;-65
2021/07/28 01:13:30;;;;;;;5.87;5.27;;;24.50;41.70;;;;;;5051816;28;20916;-65
2021/07/28 01:16:06;;;;;;;6.40;6.00;;;24.50;41.70;;;;;;5052083;28;20414;-65
2021/07/28 01:18:33;;;;;;;6.63;6.13;;;24.50;41.70;;;;;;5052067;28;20433;-64
2021/07/28 01:20:59;;;;;;;6.30;5.90;;;24.50;41.70;;;;;;5051996;28;20917;-65
2021/07/28 01:23:29;;;;;;;6.00;5.60;;;24.50;41.70;;;;;;5051796;28;20456;-65
2021/07/28 01:25:56;;;;;;;6.00;5.50;;;24.50;41.80;;;;;;5051561;28;20406;-65
2021/07/28 01:28:27;;;;;;;6.60;6.10;;;24.50;41.90;;;;;;5051683;28;20462;-65
2021/07/28 01:31:03;;;;;;;5.83;5.43;;;24.50;41.80;;;;;;5051767;28;20402;-64
2021/07/28 01:33:33;;;;;;;5.57;5.10;;;24.50;41.70;;;;;;5051934;28;20409;-65
2021/07/28 01:36:00;;;;;;;6.40;5.90;;;24.50;41.80;;;;;;5051605;28;20411;-64
2021/07/28 01:38:26;;;;;;;5.57;5.13;;;24.50;41.80;;;;;;5049920;28;20488;-65
2021/07/28 01:41:02;;;;;;;6.30;5.90;;;24.50;41.90;;;;;;5051805;28;20935;-65
2021/07/28 01:43:29;;;;;;;6.33;5.83;;;24.50;41.80;;;;;;5051619;28;20505;-65
2021/07/28 01:45:56;;;;;;;5.80;5.30;;;24.50;41.80;;;;;;5051185;28;20417;-65
2021/07/28 01:48:23;;;;;;;6.00;5.60;;;24.50;41.90;;;;;;5051529;28;20462;-65
2021/07/28 01:50:49;;;;;;;5.70;5.30;;;24.50;41.90;;;;;;5051610;28;20434;-64
2021/07/28 01:53:15;;;;;;;6.07;5.57;;;24.50;42.00;;;;;;5051289;28;20856;-65
2021/07/28 01:55:42;;;;;;;6.40;5.80;;;24.50;41.90;;;;;;5051491;28;20160;-65
2021/07/28 01:58:08;;;;;;;5.73;5.33;;;24.50;42.00;;;;;;5051541;28;20411;-65
2021/07/28 02:00:34;;;;;;;6.00;5.50;;;24.40;42.00;;;;;;5051480;28;20417;-65
2021/07/28 02:03:03;;;;;;;5.27;4.90;;;24.50;42.00;;;;;;5051445;28;20414;-65
2021/07/28 02:05:30;;;;;;;6.33;5.93;;;24.50;42.00;;;;;;5051353;28;20503;-65
2021/07/28 02:08:01;;;;;;;6.03;5.60;;;24.50;41.90;;;;;;5051131;28;20454;-65
2021/07/28 02:10:27;;;;;;;5.90;5.40;;;24.50;42.00;;;;;;5051532;28;20402;-65
2021/07/28 02:12:52;;;;;;;5.50;5.10;;;24.50;42.00;;;;;;5053940;28;20827;-65
2021/07/28 02:15:18;;;;;;;5.90;5.50;;;24.50;41.90;;;;;;5055047;28;20182;-65
2021/07/28 02:17:44;;;;;;;5.80;5.40;;;24.50;42.00;;;;;;5055419;28;20206;-65
2021/07/28 02:20:10;;;;;;;5.10;4.80;;;24.50;41.90;;;;;;5055237;28;20464;-65
2021/07/28 02:22:35;;;;;;;6.07;5.57;;;24.50;41.80;;;;;;5055143;28;20231;-65
2021/07/28 02:25:01;;;;;;;5.80;5.40;;;24.40;41.60;;;;;;5054808;28;20446;-65
2021/07/28 02:27:26;;;;;;;5.57;5.27;;;24.40;41.60;;;;;;5055128;28;20199;-65
2021/07/28 02:29:52;;;;;;;5.50;5.20;;;24.40;41.60;;;;;;5055221;28;20263;-64
2021/07/28 02:32:17;;;;;;;5.30;4.90;;;24.40;41.60;;;;;;5054888;28;20168;-65
2021/07/28 02:34:43;;;;;;;5.57;5.13;;;24.40;41.60;;;;;;5054822;28;20175;-65
2021/07/28 02:37:08;;;;;;;5.20;4.90;;;24.40;41.70;;;;;;5055289;28;20234;-65
2021/07/28 02:39:34;;;;;;;5.80;5.40;;;24.40;41.70;;;;;;5055151;28;20188;-65
2021/07/28 02:42:00;;;;;;;5.50;5.10;;;24.40;41.60;;;;;;5055683;28;20179;-65
2021/07/28 02:44:25;;;;;;;5.90;5.50;;;24.40;41.50;;;;;;5055905;28;20184;-65
2021/07/28 02:46:51;;;;;;;5.93;5.43;;;24.40;41.60;;;;;;5054657;28;20255;-65
2021/07/28 02:49:16;;;;;;;6.43;6.00;;;24.40;41.50;;;;;;5054588;28;20681;-65
2021/07/28 02:51:42;;;;;;;5.70;5.30;;;24.40;41.50;;;;;;5054855;28;20164;-65
2021/07/28 02:54:08;;;;;;;5.80;5.30;;;24.40;41.50;;;;;;5054411;28;20164;-65
2021/07/28 02:56:34;;;;;;;5.43;5.03;;;24.40;41.40;;;;;;5054728;28;20184;-65
2021/07/28 02:59:00;;;;;;;5.20;4.80;;;24.40;41.40;;;;;;5054639;28;20437;-65
2021/07/28 03:01:25;;;;;;;5.77;5.37;;;24.40;41.40;;;;;;5054285;28;20410;-64
2021/07/28 03:03:51;;;;;;;6.33;5.83;;;24.40;41.30;;;;;;5054393;28;20642;-65
2021/07/28 03:06:16;;;;;;;6.07;5.57;;;24.40;41.30;;;;;;5054229;28;20254;-65
2021/07/28 03:08:42;;;;;;;5.97;5.57;;;24.40;41.40;;;;;;5053990;28;20232;-65
2021/07/28 03:11:07;;;;;;;5.63;5.27;;;24.40;41.40;;;;;;5054415;28;20179;-65
2021/07/28 03:13:33;;;;;;;5.23;4.83;;;24.40;41.40;;;;;;5054403;28;20254;-65
2021/07/28 03:16:07;;;;;;;5.30;4.97;;;24.30;41.30;;;;;;5053818;28;20180;-65
2021/07/28 03:18:32;;;;;;;5.67;5.27;;;24.40;41.40;;;;;;5053995;28;20616;-65
2021/07/28 03:20:58;;;;;;;4.93;4.57;;;24.40;41.40;;;;;;5054228;28;20449;-64
2021/07/28 03:23:23;;;;;;;5.70;5.30;;;24.40;41.30;;;;;;5052886;28;20176;-65
2021/07/28 03:25:49;;;;;;;5.30;5.00;;;24.40;41.30;;;;;;5053759;28;20261;-65
2021/07/28 03:28:14;;;;;;;7.03;6.53;;;24.30;41.30;;;;;;5053833;28;20681;-65
2021/07/28 03:30:39;;;;;;;5.70;5.40;;;24.30;41.20;;;;;;5053777;28;20218;-65
2021/07/28 03:33:05;;;;;;;5.87;5.47;;;24.30;41.20;;;;;;5053878;28;20203;-65
2021/07/28 03:35:30;;;;;;;5.73;5.33;;;24.40;41.30;;;;;;5053597;28;20168;-65
2021/07/28 03:37:56;;;;;;;5.77;5.37;;;24.30;41.20;;;;;;5053607;28;20176;-64
2021/07/28 03:40:22;;;;;;;5.67;5.17;;;24.40;41.20;;;;;;5053815;28;20668;-65
2021/07/28 03:42:48;;;;;;;5.20;4.80;;;24.40;41.20;;;;;;5053866;28;20180;-65
2021/07/28 03:45:13;;;;;;;5.30;4.90;;;24.30;41.20;;;;;;5053297;28;20547;-65
2021/07/28 03:47:39;;;;;;;5.63;5.23;;;24.30;41.10;;;;;;5053443;28;20457;-64
2021/07/28 03:50:05;;;;;;;5.73;5.33;;;24.30;41.20;;;;;;5053491;28;20192;-64
2021/07/28 03:52:31;;;;;;;5.37;4.97;;;24.40;41.20;;;;;;5053417;28;20172;-65
2021/07/28 03:54:56;;;;;;;5.27;4.80;;;24.30;41.10;;;;;;5053502;28;20399;-65
2021/07/28 03:57:22;;;;;;;5.43;4.50;;;24.30;41.10;;;;;;5053451;28;20255;-65
2021/07/28 03:59:47;;;;;;;5.80;5.40;;;24.40;41.20;;;;;;5053007;28;20199;-65
2021/07/28 04:02:13;;;;;;;5.47;5.13;;;24.30;41.20;;;;;;5053348;28;20176;-65
2021/07/28 04:04:39;;;;;;;5.93;5.43;;;24.30;41.20;;;;;;5053118;28;20283;-64
2021/07/28 04:07:06;;;;;;;7.93;6.20;;;24.30;41.20;;;;;;5053029;28;20509;-65
2021/07/28 04:09:32;;;;;;;5.80;5.23;;;24.30;41.20;;;;;;5053461;28;20431;-65
2021/07/28 04:11:57;;;;;;;5.70;5.30;;;24.30;41.20;;;;;;5047557;28;20856;-65
2021/07/28 04:14:23;;;;;;;5.40;5.00;;;24.30;41.10;;;;;;5047330;28;20199;-65
2021/07/28 04:16:48;;;;;;;5.73;5.17;;;24.30;41.10;;;;;;5052971;28;20839;-65
2021/07/28 04:19:14;;;;;;;6.17;5.67;;;24.30;41.10;;;;;;5053382;28;20204;-65
2021/07/28 04:21:39;;;;;;;5.20;4.90;;;24.30;41.10;;;;;;5048687;28;20189;-64
2021/07/28 04:24:05;;;;;;;5.10;4.80;;;24.30;41.10;;;;;;5053088;28;20548;-65
2021/07/28 04:26:31;;;;;;;5.87;5.37;;;24.30;41.00;;;;;;5050989;28;20219;-65
2021/07/28 04:28:56;;;;;;;5.23;4.93;;;24.30;41.10;;;;;;5052355;28;20211;-65
2021/07/28 04:31:22;;;;;;;5.47;5.10;;;24.30;41.00;;;;;;5052897;28;20524;-65
2021/07/28 04:33:47;;;;;;;5.87;5.33;;;24.30;41.10;;;;;;5052828;28;20176;-65
2021/07/28 04:36:13;;;;;;;5.80;5.40;;;24.30;41.20;;;;;;5052153;28;20243;-65
2021/07/28 04:38:38;;;;;;;5.03;4.73;;;24.30;41.10;;;;;;5050610;28;20701;-65
2021/07/28 04:41:04;;;;;;;5.43;5.03;;;24.30;41.10;;;;;;5050321;28;20566;-65
2021/07/28 04:43:29;;;;;;;5.70;5.30;;;24.30;41.10;;;;;;5041962;28;20890;-65
2021/07/28 04:45:59;;;;;;;5.93;5.40;;;24.30;41.00;;;;;;5050900;28;20232;-65
2021/07/28 04:48:26;;;;;;;5.50;4.93;;;24.30;41.00;;;;;;5044767;28;20246;-65
2021/07/28 04:50:52;;;;;;;6.13;5.73;;;24.30;41.00;;;;;;5034531;28;20437;-65
2021/07/28 04:53:18;;;;;;;6.30;5.00;;;24.30;40.90;;;;;;5034718;28;20506;-65
2021/07/28 04:55:43;;;;;;;6.23;5.77;;;24.30;40.90;;;;;;5051945;28;20525;-65
2021/07/28 04:58:09;;;;;;;5.63;5.10;;;24.30;40.90;;;;;;5052111;28;20187;-64
2021/07/28 05:00:34;;;;;;;4.70;4.40;;;24.30;40.90;;;;;;5052151;28;20245;-65
2021/07/28 05:03:00;;;;;;;5.90;5.47;;;24.40;40.90;;;;;;5052103;28;20187;-65
2021/07/28 05:05:25;;;;;;;6.20;5.80;;;24.40;41.00;;;;;;5051882;28;20274;-64
2021/07/28 05:07:51;;;;;;;5.70;5.30;;;24.40;41.00;;;;;;5057072;28;20215;-63
2021/07/28 05:10:16;;;;;;;5.37;4.90;;;24.40;40.90;;;;;;5072108;28;20741;-65
2021/07/28 05:12:42;;;;;;;6.30;5.80;;;24.40;41.00;;;;;;5072185;28;20167;-64
2021/07/28 05:15:08;;;;;;;5.83;5.20;;;24.40;41.00;;;;;;5071604;28;20171;-64
2021/07/28 05:17:33;;;;;;;5.50;5.10;;;24.40;41.00;;;;;;5071859;28;20175;-65
2021/07/28 05:19:59;;;;;;;6.63;6.13;;;24.40;41.10;;;;;;5051938;28;20461;-67
2021/07/28 05:22:24;;;;;;;6.43;5.83;;;24.40;41.20;;;;;;5048235;28;20648;-64
2021/07/28 05:24:52;;;;;;;7.37;6.63;;;24.40;41.20;;;;;;5047675;28;20303;-64
2021/07/28 05:27:17;;;;;;;7.77;7.27;;;24.40;41.30;;;;;;5043486;28;20734;-64
2021/07/28 05:29:43;;;;;;;7.30;6.70;;;24.40;41.30;;;;;;5047104;28;20442;-66
2021/07/28 05:32:09;;;;;;;7.37;6.77;;;24.40;41.20;;;;;;5051807;28;20176;-69
2021/07/28 05:34:34;;;;;;;7.60;6.90;;;24.40;41.10;;;;;;5051544;28;20172;-67
2021/07/28 05:36:59;;;;;;;6.00;5.60;;;24.40;41.00;;;;;;5043136;28;20632;-66
2021/07/28 05:39:25;;;;;;;7.07;6.47;;;24.40;40.90;;;;;;5041976;28;20212;-66
2021/07/28 05:41:51;;;;;;;6.50;6.00;;;24.40;41.00;;;;;;5050141;28;20270;-65
2021/07/28 05:44:16;;;;;;;6.30;5.80;;;24.40;41.00;;;;;;5039117;28;20648;-66
2021/07/28 05:46:42;;;;;;;7.03;6.53;;;24.50;41.00;;;;;;5049207;28;20545;-66
2021/07/28 05:49:07;;;;;;;7.27;6.57;;;24.40;40.90;;;;;;5055673;28;20199;-66
2021/07/28 05:51:33;;;;;;;7.60;7.00;;;24.50;41.00;;;;;;5053980;28;20176;-65
2021/07/28 05:53:58;;;;;;;6.90;6.30;;;24.50;41.00;;;;;;5055700;28;20552;-65
2021/07/28 05:56:24;;;;;;;6.40;5.80;;;24.50;40.90;;;;;;5055701;28;20202;-64
2021/07/28 05:58:49;;;;;;;7.23;5.40;;;24.50;40.70;;;;;;5053941;28;20282;-64
2021/07/28 06:01:15;;;;;;;6.53;5.93;;;24.40;40.60;;;;;;5048024;28;20183;-64
2021/07/28 06:03:41;;;;;;;7.60;6.30;;;24.40;40.50;;;;;;5052961;28;20195;-65
2021/07/28 06:06:06;;;;;;;10.17;7.40;;;24.50;40.50;;;;;;5055397;28;20282;-64
2021/07/28 06:08:32;;;;;;;10.90;6.67;;;24.50;40.40;;;;;;5055638;28;20238;-64
2021/07/28 06:10:58;;;;;;;6.80;6.20;;;24.40;40.30;;;;;;5056360;28;20186;-64
2021/07/28 06:13:23;;;;;;;8.80;6.70;;;24.50;40.40;;;;;;5055551;28;20190;-64
2021/07/28 06:15:50;;;;;;;6.83;6.20;;;24.50;40.20;;;;;;5055283;28;20556;-65
2021/07/28 06:18:16;;;;;;;6.00;5.50;;;24.50;40.00;;;;;;5055491;28;20206;-65
2021/07/28 06:20:42;;;;;;;6.43;5.77;;;24.40;39.80;;;;;;5054846;28;20406;-64
2021/07/28 06:23:07;;;;;;;7.23;6.30;;;24.50;39.70;;;;;;5055273;28;20183;-64
2021/07/28 06:25:33;;;;;;;6.43;5.83;;;24.40;39.50;;;;;;5055203;28;20545;-64
2021/07/28 06:28:01;;;;;;;5.83;5.17;;;24.40;39.50;;;;;;5054791;28;20203;-67
2021/07/28 06:30:26;;;;;;;6.40;5.90;;;24.40;39.40;;;;;;5055516;28;20627;-65
2021/07/28 06:32:52;;;;;;;5.20;4.80;;;24.40;39.30;;;;;;5055149;28;20415;-64
2021/07/28 06:35:18;;;;;;;6.17;5.57;;;24.40;39.40;;;;;;5054465;28;20218;-65
2021/07/28 06:37:43;;;;;;;5.87;5.47;;;24.40;39.40;;;;;;5054972;28;20172;-64
2021/07/28 06:40:09;;;;;;;6.17;5.67;;;24.40;39.30;;;;;;5054829;28;20207;-64
2021/07/28 06:42:35;;;;;;;6.00;5.43;;;24.40;39.30;;;;;;5049149;28;20180;-64
2021/07/28 06:45:00;;;;;;;5.40;5.00;;;24.30;39.20;;;;;;5054661;28;20417;-65
2021/07/28 06:47:26;;;;;;;5.60;5.10;;;24.30;39.10;;;;;;5054587;28;20239;-64
2021/07/28 06:49:51;;;;;;;5.93;5.43;;;24.30;39.20;;;;;;5054049;28;20195;-64
2021/07/28 06:52:17;;;;;;;6.40;5.90;;;24.30;39.30;;;;;;5045926;28;20179;-64
2021/07/28 06:54:42;;;;;;;6.63;5.80;;;24.30;39.40;;;;;;5049944;28;20275;-66
2021/07/28 06:57:08;;;;;;;5.70;5.30;;;24.30;39.60;;;;;;5054100;28;20186;-66
2021/07/28 06:59:34;;;;;;;6.03;5.43;;;24.30;39.70;;;;;;5053201;28;20250;-68
2021/07/28 07:02:00;;;;;;;6.23;5.73;;;24.30;39.70;;;;;;5051753;28;20179;-66
2021/07/28 07:04:25;;;;;;;6.80;6.20;;;24.30;39.80;;;;;;5054093;28;20435;-67
2021/07/28 07:06:53;;;;;;;6.40;5.90;;;24.30;39.90;;;;;;5054329;28;20175;-67
2021/07/28 07:09:19;;;;;;;7.03;6.33;;;24.30;40.00;;;;;;5054382;28;20310;-69
2021/07/28 07:11:44;;;;;;;5.90;5.40;;;24.30;40.10;;;;;;5053967;28;20494;-67
2021/07/28 07:14:10;;;;;;;5.57;5.07;;;24.30;40.20;;;;;;5054103;28;20176;-66
2021/07/28 07:16:35;;;;;;;6.43;5.83;;;24.30;40.20;;;;;;5054521;28;20175;-67
2021/07/28 07:19:01;;;;;;;5.67;5.07;;;24.30;40.20;;;;;;5054732;28;20238;-67
2021/07/28 07:21:26;;;;;;;6.67;6.10;;;24.30;40.30;;;;;;5054545;28;20172;-66
2021/07/28 07:23:54;;;;;;;6.00;5.40;;;24.30;40.40;;;;;;5054197;28;20183;-66
2021/07/28 07:26:20;;;;;;;7.50;6.00;;;24.30;40.40;;;;;;5053757;28;20239;-66
2021/07/28 07:28:45;;;;;;;6.50;5.90;;;24.30;40.40;;;;;;5054277;28;20549;-66
2021/07/28 07:31:11;;;;;;;6.03;5.53;;;24.30;40.40;;;;;;5054189;28;20204;-67
2021/07/28 07:33:38;;;;;;;7.83;5.40;;;24.30;40.40;;;;;;5053703;28;20173;-66
2021/07/28 07:36:10;;;;;;;6.33;5.73;;;24.30;40.40;;;;;;5054133;28;20418;-68
2021/07/28 07:38:37;;;;;;;7.47;6.20;;;24.30;40.50;;;;;;5053821;28;20500;-67
2021/07/28 07:41:04;;;;;;;5.43;5.03;;;24.30;40.60;;;;;;5053757;28;20506;-66
2021/07/28 07:43:30;;;;;;;5.90;5.40;;;24.30;40.60;;;;;;5054127;28;21180;-69
2021/07/28 07:45:56;;;;;;;6.57;6.03;;;24.30;40.50;;;;;;5053994;28;20402;-68
2021/07/28 07:48:24;;;;;;;6.13;5.60;;;24.30;40.50;;;;;;5053684;28;20265;-65
2021/07/28 07:50:51;;;;;;;5.37;5.07;;;24.30;40.30;;;;;;5053217;28;20582;-65
2021/07/28 07:53:17;;;;;;;6.20;5.70;;;24.30;40.30;;;;;;5053580;28;20407;-63
2021/07/28 07:55:42;;;;;;;6.17;5.57;;;24.30;40.30;;;;;;5052933;28;20999;-62
2021/07/28 07:58:08;;;;;;;6.20;5.73;;;24.30;40.20;;;;;;5053208;28;20414;-64
2021/07/28 08:00:33;;;;;;;6.00;5.47;;;24.30;40.20;;;;;;5053280;28;20172;-64
2021/07/28 08:02:59;;;;;;;5.60;5.10;;;24.30;40.20;;;;;;5053487;28;20183;-63
2021/07/28 08:05:24;;;;;;;5.27;4.87;;;24.30;40.20;;;;;;5052830;28;20545;-64
2021/07/28 08:07:50;;;;;;;5.90;5.50;;;24.30;40.20;;;;;;5053034;28;20264;-64
2021/07/28 08:10:15;;;;;;;5.77;5.27;;;24.30;40.20;;;;;;5052234;28;20211;-64
2021/07/28 08:12:41;;;;;;;5.60;5.10;;;24.30;40.10;;;;;;5052810;28;20168;-64
2021/07/28 08:15:07;;;;;;;6.50;5.90;;;24.30;40.10;;;;;;5047082;28;20201;-62
2021/07/28 08:17:33;;;;;;;5.50;5.00;;;24.30;40.10;;;;;;5049286;28;20665;-64
2021/07/28 08:20:00;;;;;;;5.37;4.83;;;24.30;40.10;;;;;;5043579;28;20207;-65
2021/07/28 08:22:27;;;;;;;5.43;5.03;;;24.30;40.10;;;;;;5051559;28;20656;-64
2021/07/28 08:24:52;;;;;;;5.90;5.43;;;24.30;40.00;;;;;;5052574;28;20420;-64
2021/07/28 08:27:18;;;;;;;5.87;5.40;;;24.30;40.00;;;;;;5052329;28;20414;-65
2021/07/28 08:29:43;;;;;;;5.97;5.40;;;24.30;40.00;;;;;;5052640;28;20194;-64
2021/07/28 08:32:09;;;;;;;6.87;5.97;;;24.30;40.00;;;;;;5053015;28;20209;-64
2021/07/28 08:34:34;;;;;;;6.83;6.03;;;24.40;40.00;;;;;;5051897;28;20200;-64
2021/07/28 08:37:00;;;;;;;6.20;5.60;;;24.40;40.00;;;;;;5053197;28;20172;-64
2021/07/28 08:39:26;;;;;;;6.60;6.00;;;24.40;40.00;;;;;;5052422;28;20654;-63
2021/07/28 08:41:53;;;;;;;6.77;6.27;;;24.40;39.90;;;;;;5052734;28;20176;-64
2021/07/28 08:44:21;;;;;;;6.70;6.20;;;24.40;39.90;;;;;;5052174;28;20486;-64
2021/07/28 08:46:49;;;;;;;6.77;6.20;;;24.40;39.80;;;;;;5047987;28;20846;-64
2021/07/28 08:49:15;;;;;;;7.53;6.93;;;24.40;39.70;;;;;;5052139;28;20469;-64
2021/07/28 08:51:43;;;;;;;7.30;6.80;;;24.40;39.70;;;;;;5052298;28;20406;-64
2021/07/28 08:54:09;;;;;;;7.00;6.40;;;24.40;39.70;;;;;;5052713;28;20176;-64
2021/07/28 08:56:39;;;;;;;7.67;6.97;;;24.40;39.70;;;;;;5052195;28;20402;-64
2021/07/28 08:59:05;;;;;;;9.20;6.60;;;24.40;39.70;;;;;;5052445;28;20433;-64
2021/07/28 09:01:31;;;;;;;7.07;6.50;;;24.40;39.60;;;;;;5052380;28;20403;-64
2021/07/28 09:03:56;;;;;;;6.80;6.30;;;24.40;39.50;;;;;;5051936;28;20443;-63
2021/07/28 09:06:29;;;;;;;6.73;6.20;;;24.40;39.50;;;;;;5051854;28;20255;-64
2021/07/28 09:08:59;;;;;;;7.33;6.77;;;24.40;39.40;;;;;;5052130;28;20212;-64
2021/07/28 09:11:25;;;;;;;6.40;5.97;;;24.40;39.30;;;;;;5052037;28;20409;-64
2021/07/28 09:13:55;;;;;;;7.23;6.63;;;24.40;39.30;;;;;;5052136;28;20481;-63
2021/07/28 09:16:20;;;;;;;5.63;5.23;;;24.40;39.20;;;;;;5051942;28;20174;-64
2021/07/28 09:18:51;;;;;;;6.57;5.87;;;24.50;39.10;;;;;;5051731;28;20430;-63
2021/07/28 09:21:19;;;;;;;6.50;6.00;;;24.50;39.10;;;;;;5051338;28;20642;-64
2021/07/28 09:23:46;;;;;;;5.80;5.40;;;24.50;39.00;;;;;;5051794;28;20437;-64
2021/07/28 09:26:50;;;;;;;5.90;5.50;;;24.50;38.90;;;;;;5051485;28;20411;-64
2021/07/28 09:29:19;;;;;;;6.43;5.93;;;24.50;38.80;;;;;;5051247;28;20481;-64
2021/07/28 09:31:46;;;;;;;6.27;5.77;;;24.50;38.70;;;;;;5051952;28;20429;-63
2021/07/28 09:34:18;;;;;;;6.20;5.70;;;24.50;38.60;;;;;;5051675;28;20421;-64
2021/07/28 09:36:43;;;;;;;6.30;5.80;;;24.50;39.20;;;;;;5051633;28;20415;-64
2021/07/28 09:39:09;;;;;;;6.53;6.00;;;24.50;38.40;;;;;;5051983;28;20522;-64
2021/07/28 09:41:39;;;;;;;5.20;4.80;;;24.50;38.30;;;;;;5052446;28;20214;-64
2021/07/28 09:44:05;;;;;;;5.73;5.23;;;24.50;38.30;;;;;;5052130;28;20642;-64
2021/07/28 09:46:38;;;;;;;5.93;5.53;;;24.50;38.20;;;;;;5051368;28;20413;-64
2021/07/28 09:49:09;;;;;;;5.73;5.33;;;24.50;38.30;;;;;;5051495;28;20454;-63
2021/07/28 09:51:37;;;;;;;6.07;5.50;;;24.50;38.20;;;;;;5051834;28;20502;-64
2021/07/28 09:54:08;;;;;;;5.50;5.10;;;24.60;38.40;;;;;;5051317;28;20406;-64
2021/07/28 09:56:50;;;;;;;5.70;5.20;;;24.60;38.30;;;;;;5051006;28;20437;-64
2021/07/28 09:59:16;;;;;;;5.03;4.63;;;24.60;38.20;;;;;;5051453;28;20433;-65
2021/07/28 10:01:44;;;;;;;5.53;5.03;;;24.60;38.20;;;;;;5051205;28;20728;-66
2021/07/28 10:04:11;;;;;;;5.70;5.30;;;24.60;38.10;;;;;;5051590;28;20437;-66
2021/07/28 10:06:39;;;;;;;6.10;5.60;;;24.60;38.10;;;;;;5051283;28;20471;-67
2021/07/28 10:09:14;;;;;;;5.80;5.40;;;24.60;38.10;;;;;;5051146;28;20493;-63
2021/07/28 10:11:40;;;;;;;5.70;5.30;;;24.60;38.10;;;;;;5051458;28;20905;-66
2021/07/28 10:14:09;;;;;;;6.10;5.60;;;24.60;38.10;;;;;;5051565;28;20406;-66
2021/07/28 10:16:34;;;;;;;7.20;6.60;;;24.60;38.00;;;;;;5050822;28;20462;-65
2021/07/28 10:19:05;;;;;;;6.43;5.83;;;24.60;38.00;;;;;;5051145;28;20446;-65
2021/07/28 10:21:33;;;;;;;5.70;5.30;;;24.60;37.90;;;;;;5050926;28;20176;-66
2021/07/28 10:24:00;;;;;;;6.53;5.60;;;24.60;37.90;;;;;;5051187;28;20456;-66
2021/07/28 10:26:26;;;;;;;5.97;5.57;;;24.60;37.80;;;;;;5050936;28;20412;-64
2021/07/28 10:28:54;;;;;;;5.60;5.20;;;24.60;37.70;;;;;;5051245;28;20466;-67
2021/07/28 10:31:21;;;;;;;5.53;4.70;;;24.60;37.70;;;;;;5050841;28;20418;-67
2021/07/28 10:33:54;;;;;;;4.93;4.63;;;24.60;37.70;;;;;;5052648;28;20453;-65
2021/07/28 10:36:40;;;;;;;6.30;5.80;;;24.60;37.70;;;;;;5054598;28;20412;-65
2021/07/28 10:39:06;;;;;;;5.40;4.90;;;24.60;37.80;;;;;;5050252;28;20529;-65
2021/07/28 10:41:43;;;;;;;5.70;5.30;;;24.60;37.80;;;;;;5054826;28;20842;-64
2021/07/28 10:44:17;;;;;;;6.33;5.73;;;24.70;37.80;;;;;;5054571;28;20544;-64
2021/07/28 10:46:57;;;;;;;5.53;5.10;;;24.60;37.50;;;;;;5053537;28;20402;-64
2021/07/28 10:49:35;;;;;;;5.50;4.97;;;24.60;37.40;;;;;;5054489;28;20458;-64
2021/07/28 10:52:01;;;;;;;6.40;5.80;;;24.60;37.10;;;;;;5054065;28;20993;-63
2021/07/28 10:54:46;;;;;;;4.70;4.40;;;24.60;36.90;;;;;;5037245;28;20474;-63
2021/07/28 10:57:33;;;;;;;5.33;4.93;;;24.60;36.70;;;;;;5033061;28;20403;-64
2021/07/28 10:59:59;;;;;;;6.30;5.60;;;24.60;37.00;;;;;;5033130;28;20427;-63
2021/07/28 11:02:38;;;;;;;6.27;5.67;;;24.60;37.10;;;;;;5033993;28;20443;-63
2021/07/28 11:05:26;;;;;;;6.50;5.90;;;24.60;37.00;;;;;;5033706;28;20431;-63
2021/07/28 11:08:06;;;;;;;6.90;6.40;;;24.60;37.00;;;;;;5034443;28;20477;-63
2021/07/28 11:10:38;;;;;;;6.13;5.63;;;24.60;36.90;;;;;;5034375;28;20918;-64
2021/07/28 11:13:09;;;;;;;6.77;5.60;;;24.60;36.80;;;;;;5034124;28;20880;-63
2021/07/28 11:15:35;;;;;;;6.03;5.60;;;24.60;36.70;;;;;;5033503;28;20395;-64
2021/07/28 11:18:01;;;;;;;7.23;5.80;;;24.60;36.70;;;;;;5034155;28;20450;-65
2021/07/28 11:20:32;;;;;;;10.23;7.00;;;24.60;36.70;;;;;;5034200;28;20411;-63
2021/07/28 11:23:27;;;;;;;7.47;6.60;;;24.60;36.80;;;;;;5033916;28;20411;-65
2021/07/28 11:25:58;;;;;;;11.93;7.20;;;24.70;37.00;;;;;;5033316;28;20423;-64
2021/07/28 11:28:25;;;;;;;9.43;7.13;;;24.70;36.90;;;;;;5033757;28;20469;-65
2021/07/28 11:30:59;;;;;;;7.80;6.53;;;24.70;36.80;;;;;;5033743;28;20434;-64
2021/07/28 11:33:26;;;;;;;8.90;5.73;;;24.70;36.90;;;;;;5043282;28;20836;-64
2021/07/28 11:35:52;;;;;;;10.10;6.13;;;24.70;36.90;;;;;;5053565;28;20472;-64
2021/07/28 11:38:38;;;;;;;9.30;5.80;;;24.70;36.80;;;;;;5053111;28;20415;-64
2021/07/28 11:41:06;;;;;;;9.60;6.33;;;24.70;36.80;;;;;;5053618;28;20464;-64
2021/07/28 11:43:42;;;;;;;6.37;5.77;;;24.70;36.80;;;;;;5052090;28;20442;-63
2021/07/28 11:46:10;;;;;;;6.67;5.37;;;24.70;36.60;;;;;;5050108;28;20968;-64
2021/07/28 11:48:38;;;;;;;10.23;6.57;;;24.70;36.70;;;;;;5051774;28;20504;-64
2021/07/28 11:51:06;;;;;;;5.80;5.20;;;24.70;36.70;;;;;;5051606;28;20456;-65
2021/07/28 11:53:32;;;;;;;7.27;5.13;;;24.80;36.70;;;;;;5051792;28;20418;-64
2021/07/28 11:56:12;;;;;;;5.70;5.20;;;24.80;36.80;;;;;;5050988;28;20414;-64
2021/07/28 11:58:45;;;;;;;5.13;4.63;;;24.70;36.70;;;;;;5051572;28;20422;-64
2021/07/28 12:01:24;;;;;;;7.17;4.80;;;24.70;36.70;;;;;;5052880;28;20415;-64
2021/07/28 12:04:04;;;;;;;6.17;5.67;;;24.70;36.80;;;;;;5053161;28;20771;-64
2021/07/28 12:06:34;;;;;;;6.13;5.53;;;24.70;36.70;;;;;;5053301;28;20793;-65
2021/07/28 12:09:16;;;;;;;5.80;5.13;;;24.70;36.70;;;;;;5052693;28;20458;-64
2021/07/28 12:11:47;;;;;;;5.63;5.10;;;24.70;36.60;;;;;;5053082;28;20464;-64
2021/07/28 12:14:33;;;;;;;6.23;5.63;;;24.80;36.70;;;;;;5053091;28;20414;-64
2021/07/28 12:17:19;;;;;;;5.20;4.70;;;24.80;36.50;;;;;;5052472;28;20484;-63
2021/07/28 12:19:54;;;;;;;4.93;4.50;;;24.80;36.40;;;;;;5048893;28;20450;-63
2021/07/28 12:22:30;;;;;;;6.47;5.20;;;24.80;36.40;;;;;;5052321;28;20765;-63
2021/07/28 12:25:22;;;;;;;5.03;4.73;;;24.80;36.40;;;;;;5052326;28;20624;-64
2021/07/28 12:27:59;;;;;;;4.83;4.50;;;24.80;36.30;;;;;;5052435;28;20869;-64
2021/07/28 12:30:35;;;;;;;5.30;4.90;;;24.70;36.40;;;;;;5052310;28;20422;-64
2021/07/28 12:33:23;;;;;;;5.40;4.50;;;24.70;36.40;;;;;;5052939;28;20410;-63
2021/07/28 12:35:56;;;;;;;5.90;5.40;;;24.80;36.40;;;;;;5052543;28;20399;-64
2021/07/28 12:38:28;;;;;;;5.50;5.10;;;24.80;36.40;;;;;;5052112;28;20434;-64
2021/07/28 12:41:05;;;;;;;5.70;5.20;;;24.70;36.10;;;;;;5052359;28;20432;-64
2021/07/28 12:43:35;;;;;;;5.60;5.13;;;24.80;36.10;;;;;;5052760;28;20414;-64
2021/07/28 12:46:06;;;;;;;4.73;4.43;;;24.80;36.00;;;;;;5051812;28;20834;-64
2021/07/28 12:48:32;;;;;;;5.30;4.80;;;24.80;36.00;;;;;;5052098;28;20466;-63
2021/07/28 12:51:00;;;;;;;5.13;4.73;;;24.80;35.90;;;;;;5052235;28;20414;-63
2021/07/28 12:53:28;;;;;;;5.27;4.77;;;24.80;36.60;;;;;;5051760;28;20407;-65